DAL7326 LIRF-LIMF
Flight info
| Callsign | DAL7326 |
|---|---|
| Flight time | 0h 52m |
| Altitude | 34000 |
| Route | NEMBO DCT ELB DCT LAGEN |
| Aircraft | A20N/M-SDE2E3FGHIRWXY/LB1 |
Departure
| Time | 2026-05-06 15:08 |
|---|---|
| Airport | Rome–Fiumicino Leonardo da Vinci International Airport (LIRF) |
Arrival
| Time | 2026-05-06 16:00 |
|---|---|
| Airport | Turin Airport (LIMF) |
| Time | Latitude | Longitude | Altitude | Speed | Heading |
|---|---|---|---|---|---|
| 2026-05-06 14:54 | 41.79586 | 12.24061 | 16 ft | 0 kts | 70° |
| 2026-05-06 14:59 | 41.79584 | 12.24054 | 15 ft | 1 kts | 70° |
| 2026-05-06 14:59 | 41.79581 | 12.24041 | 18 ft | 1 kts | 70° |
| 2026-05-06 14:59 | 41.79577 | 12.24026 | 16 ft | 2 kts | 70° |
| 2026-05-06 14:59 | 41.79571 | 12.24004 | 16 ft | 3 kts | 70° |
| 2026-05-06 15:00 | 41.79564 | 12.23982 | 18 ft | 4 kts | 68° |
| 2026-05-06 15:00 | 41.79543 | 12.23948 | 18 ft | 5 kts | 12° |
| 2026-05-06 15:00 | 41.79521 | 12.23951 | 18 ft | 0 kts | 338° |
| 2026-05-06 15:02 | 41.79539 | 12.23941 | 18 ft | 6 kts | 338° |
| 2026-05-06 15:02 | 41.79592 | 12.23913 | 14 ft | 10 kts | 338° |
| 2026-05-06 15:02 | 41.79661 | 12.23861 | 15 ft | 12 kts | 310° |
| 2026-05-06 15:03 | 41.79698 | 12.23752 | 15 ft | 14 kts | 314° |
| 2026-05-06 15:03 | 41.79796 | 12.23700 | 15 ft | 17 kts | 344° |
| 2026-05-06 15:03 | 41.79908 | 12.23656 | 18 ft | 16 kts | 342° |
| 2026-05-06 15:03 | 41.80017 | 12.23609 | 20 ft | 17 kts | 342° |
| 2026-05-06 15:04 | 41.80138 | 12.23558 | 20 ft | 19 kts | 342° |
| 2026-05-06 15:04 | 41.80269 | 12.23500 | 20 ft | 21 kts | 342° |
| 2026-05-06 15:04 | 41.80421 | 12.23434 | 17 ft | 24 kts | 343° |
| 2026-05-06 15:04 | 41.80557 | 12.23383 | 16 ft | 20 kts | 343° |
| 2026-05-06 15:05 | 41.80702 | 12.23320 | 13 ft | 23 kts | 342° |
| 2026-05-06 15:05 | 41.80850 | 12.23255 | 14 ft | 19 kts | 343° |
| 2026-05-06 15:05 | 41.80981 | 12.23203 | 14 ft | 20 kts | 344° |
| 2026-05-06 15:05 | 41.81111 | 12.23153 | 19 ft | 20 kts | 343° |
| 2026-05-06 15:06 | 41.81248 | 12.23095 | 18 ft | 21 kts | 341° |
| 2026-05-06 15:06 | 41.81384 | 12.23036 | 17 ft | 18 kts | 338° |
| 2026-05-06 15:06 | 41.81504 | 12.22959 | 15 ft | 20 kts | 311° |
| 2026-05-06 15:06 | 41.81572 | 12.22792 | 13 ft | 20 kts | 283° |
| 2026-05-06 15:07 | 41.81527 | 12.22662 | 12 ft | 14 kts | 201° |
| 2026-05-06 15:07 | 41.81438 | 12.22687 | 13 ft | 19 kts | 162° |
| 2026-05-06 15:07 | 41.81068 | 12.22848 | 16 ft | 89 kts | 163° |
| 2026-05-06 15:07 | 41.80284 | 12.23176 | 22 ft | 143 kts | 163° |
| 2026-05-06 15:08 | 41.79235 | 12.23598 | 274 ft | 165 kts | 161° |
| 2026-05-06 15:08 | 41.78110 | 12.24033 | 917 ft | 167 kts | 161° |
| 2026-05-06 15:08 | 41.76948 | 12.24456 | 1538 ft | 177 kts | 161° |
| 2026-05-06 15:08 | 41.75732 | 12.24700 | 2140 ft | 187 kts | 179° |
| 2026-05-06 15:09 | 41.74402 | 12.24263 | 2583 ft | 209 kts | 205° |
| 2026-05-06 15:09 | 41.73253 | 12.22986 | 3284 ft | 218 kts | 230° |
| 2026-05-06 15:09 | 41.72288 | 12.21407 | 4166 ft | 220 kts | 228° |
| 2026-05-06 15:09 | 41.71291 | 12.19872 | 5011 ft | 223 kts | 227° |
| 2026-05-06 15:10 | 41.70262 | 12.18293 | 5681 ft | 228 kts | 232° |
| 2026-05-06 15:10 | 41.69566 | 12.16385 | 5928 ft | 232 kts | 256° |
| 2026-05-06 15:10 | 41.69486 | 12.14239 | 6008 ft | 233 kts | 279° |
| 2026-05-06 15:10 | 41.69955 | 12.12171 | 6024 ft | 233 kts | 289° |
| 2026-05-06 15:11 | 41.70441 | 12.10074 | 6260 ft | 237 kts | 286° |
| 2026-05-06 15:11 | 41.70886 | 12.07949 | 7026 ft | 236 kts | 285° |
| 2026-05-06 15:11 | 41.71318 | 12.05848 | 7931 ft | 235 kts | 285° |
| 2026-05-06 15:11 | 41.71757 | 12.03723 | 8713 ft | 238 kts | 285° |
| 2026-05-06 15:12 | 41.72279 | 12.01570 | 9354 ft | 250 kts | 298° |
| 2026-05-06 15:12 | 41.73185 | 11.99487 | 9730 ft | 272 kts | 302° |
| 2026-05-06 15:12 | 41.74224 | 11.97274 | 10248 ft | 286 kts | 304° |
| 2026-05-06 15:12 | 41.75315 | 11.95009 | 11071 ft | 289 kts | 304° |
| 2026-05-06 15:13 | 41.76414 | 11.92711 | 11712 ft | 301 kts | 303° |
| 2026-05-06 15:13 | 41.77580 | 11.90248 | 11981 ft | 325 kts | 303° |
| 2026-05-06 15:13 | 41.78829 | 11.87580 | 12229 ft | 348 kts | 303° |
| 2026-05-06 15:13 | 41.80117 | 11.84815 | 12767 ft | 357 kts | 302° |
| 2026-05-06 15:14 | 41.81433 | 11.81981 | 13545 ft | 361 kts | 302° |
| 2026-05-06 15:14 | 41.82770 | 11.79100 | 14284 ft | 365 kts | 302° |
| 2026-05-06 15:14 | 41.84119 | 11.76189 | 15005 ft | 369 kts | 302° |
| 2026-05-06 15:14 | 41.85479 | 11.73251 | 15698 ft | 373 kts | 302° |
| 2026-05-06 15:15 | 41.86858 | 11.70274 | 16379 ft | 376 kts | 302° |
| 2026-05-06 15:15 | 41.88243 | 11.67280 | 17040 ft | 380 kts | 302° |
| 2026-05-06 15:15 | 41.89649 | 11.64239 | 17675 ft | 384 kts | 302° |
| 2026-05-06 15:15 | 41.91064 | 11.61173 | 18310 ft | 387 kts | 302° |
| 2026-05-06 15:16 | 41.92473 | 11.58120 | 18913 ft | 391 kts | 302° |
| 2026-05-06 15:16 | 41.93909 | 11.55004 | 19515 ft | 395 kts | 302° |
| 2026-05-06 15:16 | 41.95382 | 11.51805 | 20094 ft | 398 kts | 302° |
| 2026-05-06 15:16 | 41.96824 | 11.48671 | 20663 ft | 402 kts | 302° |
| 2026-05-06 15:17 | 41.98300 | 11.45460 | 21217 ft | 405 kts | 302° |
| 2026-05-06 15:17 | 41.99794 | 11.42206 | 21765 ft | 408 kts | 302° |
| 2026-05-06 15:17 | 42.01298 | 11.38930 | 22299 ft | 412 kts | 302° |
| 2026-05-06 15:17 | 42.02807 | 11.35639 | 22817 ft | 415 kts | 302° |
| 2026-05-06 15:18 | 42.04332 | 11.32307 | 23325 ft | 418 kts | 302° |
| 2026-05-06 15:18 | 42.05844 | 11.29002 | 23820 ft | 421 kts | 302° |
| 2026-05-06 15:18 | 42.07388 | 11.25623 | 24293 ft | 425 kts | 302° |
| 2026-05-06 15:18 | 42.08941 | 11.22221 | 24784 ft | 428 kts | 302° |
| 2026-05-06 15:19 | 42.10505 | 11.18789 | 25230 ft | 431 kts | 302° |
| 2026-05-06 15:19 | 42.12080 | 11.15329 | 25673 ft | 434 kts | 302° |
| 2026-05-06 15:19 | 42.13664 | 11.11847 | 26101 ft | 437 kts | 302° |
| 2026-05-06 15:19 | 42.15253 | 11.08352 | 26512 ft | 439 kts | 302° |
| 2026-05-06 15:20 | 42.16827 | 11.04887 | 26907 ft | 442 kts | 302° |
| 2026-05-06 15:20 | 42.18440 | 11.01331 | 27294 ft | 445 kts | 302° |
| 2026-05-06 15:20 | 42.20058 | 10.97761 | 27674 ft | 447 kts | 301° |
| 2026-05-06 15:20 | 42.21689 | 10.94157 | 28032 ft | 450 kts | 301° |
| 2026-05-06 15:21 | 42.23318 | 10.90550 | 28380 ft | 452 kts | 301° |
| 2026-05-06 15:21 | 42.24961 | 10.86907 | 28716 ft | 455 kts | 301° |
| 2026-05-06 15:21 | 42.26618 | 10.83235 | 29036 ft | 457 kts | 302° |
| 2026-05-06 15:21 | 42.28486 | 10.79750 | 29346 ft | 459 kts | 311° |
| 2026-05-06 15:22 | 42.30733 | 10.76685 | 29640 ft | 460 kts | 320° |
| 2026-05-06 15:22 | 42.33259 | 10.74133 | 29922 ft | 462 kts | 328° |
| 2026-05-06 15:22 | 42.35995 | 10.71804 | 30210 ft | 464 kts | 328° |
| 2026-05-06 15:22 | 42.38725 | 10.69451 | 30504 ft | 466 kts | 328° |
| 2026-05-06 15:23 | 42.41442 | 10.67098 | 30807 ft | 469 kts | 328° |
| 2026-05-06 15:23 | 42.44223 | 10.64687 | 31092 ft | 471 kts | 328° |
| 2026-05-06 15:23 | 42.46985 | 10.62293 | 31406 ft | 472 kts | 328° |
| 2026-05-06 15:23 | 42.48819 | 10.60703 | 31647 ft | 471 kts | 328° |
| 2026-05-06 15:24 | 42.51579 | 10.58309 | 32029 ft | 471 kts | 328° |
| 2026-05-06 15:24 | 42.54348 | 10.55906 | 32401 ft | 470 kts | 328° |
| 2026-05-06 15:24 | 42.57102 | 10.53512 | 32754 ft | 469 kts | 328° |
| 2026-05-06 15:24 | 42.59847 | 10.51125 | 33096 ft | 468 kts | 328° |
| 2026-05-06 15:25 | 42.62595 | 10.48732 | 33430 ft | 468 kts | 328° |
| 2026-05-06 15:25 | 42.65330 | 10.46348 | 33750 ft | 467 kts | 328° |
| 2026-05-06 15:25 | 42.67969 | 10.44044 | 34030 ft | 467 kts | 328° |
| 2026-05-06 15:25 | 42.70760 | 10.41605 | 34156 ft | 466 kts | 328° |
| 2026-05-06 15:26 | 42.73456 | 10.39129 | 34170 ft | 466 kts | 323° |
| 2026-05-06 15:26 | 42.78500 | 10.33581 | 34169 ft | 465 kts | 321° |
| 2026-05-06 15:27 | 42.83542 | 10.28032 | 34168 ft | 465 kts | 321° |
| 2026-05-06 15:27 | 42.88574 | 10.22480 | 34169 ft | 465 kts | 321° |
| 2026-05-06 15:28 | 42.93581 | 10.16933 | 34169 ft | 465 kts | 321° |
| 2026-05-06 15:28 | 42.98611 | 10.11348 | 34170 ft | 465 kts | 321° |
| 2026-05-06 15:29 | 43.03612 | 10.05782 | 34170 ft | 465 kts | 321° |
| 2026-05-06 15:29 | 43.08636 | 10.00176 | 34169 ft | 465 kts | 321° |
| 2026-05-06 15:30 | 43.13612 | 9.94614 | 34170 ft | 465 kts | 321° |
| 2026-05-06 15:30 | 43.18639 | 9.88983 | 34170 ft | 465 kts | 321° |
| 2026-05-06 15:31 | 43.23631 | 9.83380 | 34170 ft | 465 kts | 321° |
| 2026-05-06 15:31 | 43.28662 | 9.77717 | 34172 ft | 465 kts | 321° |
| 2026-05-06 15:32 | 43.36059 | 9.69368 | 34171 ft | 465 kts | 321° |
| 2026-05-06 15:32 | 43.41056 | 9.63716 | 34170 ft | 465 kts | 321° |
| 2026-05-06 15:33 | 43.46048 | 9.58056 | 34170 ft | 465 kts | 321° |
| 2026-05-06 15:33 | 43.51074 | 9.52346 | 34170 ft | 465 kts | 321° |
| 2026-05-06 15:34 | 43.55996 | 9.46598 | 34169 ft | 465 kts | 318° |
| 2026-05-06 15:34 | 43.60748 | 9.40522 | 34169 ft | 465 kts | 317° |
| 2026-05-06 15:35 | 43.63897 | 9.36492 | 34168 ft | 465 kts | 317° |
| 2026-05-06 15:35 | 43.66186 | 9.33583 | 34169 ft | 465 kts | 317° |
| 2026-05-06 15:36 | 43.70945 | 9.27548 | 34169 ft | 465 kts | 318° |
| 2026-05-06 15:36 | 43.75713 | 9.21500 | 34169 ft | 465 kts | 317° |
| 2026-05-06 15:37 | 43.80447 | 9.15480 | 33766 ft | 464 kts | 317° |
| 2026-05-06 15:37 | 43.82793 | 9.12493 | 33064 ft | 466 kts | 317° |
| 2026-05-06 15:37 | 43.85196 | 9.09427 | 32116 ft | 472 kts | 317° |
| 2026-05-06 15:38 | 43.87634 | 9.06313 | 31046 ft | 479 kts | 317° |
| 2026-05-06 15:38 | 43.90100 | 9.03160 | 30010 ft | 484 kts | 317° |
| 2026-05-06 15:38 | 43.92576 | 8.99991 | 29339 ft | 480 kts | 317° |
| 2026-05-06 15:38 | 43.95000 | 8.96883 | 28906 ft | 470 kts | 317° |
| 2026-05-06 15:39 | 43.97395 | 8.93811 | 28333 ft | 464 kts | 317° |
| 2026-05-06 15:39 | 43.99731 | 8.90811 | 27759 ft | 459 kts | 317° |
| 2026-05-06 15:39 | 44.02057 | 8.87820 | 27188 ft | 454 kts | 317° |
| 2026-05-06 15:39 | 44.04361 | 8.84853 | 26614 ft | 449 kts | 317° |
| 2026-05-06 15:40 | 44.06645 | 8.81911 | 26049 ft | 444 kts | 317° |
| 2026-05-06 15:40 | 44.08896 | 8.79006 | 25488 ft | 439 kts | 317° |
| 2026-05-06 15:40 | 44.11133 | 8.76118 | 24926 ft | 435 kts | 317° |
| 2026-05-06 15:40 | 44.13336 | 8.73270 | 24376 ft | 430 kts | 317° |
| 2026-05-06 15:41 | 44.15518 | 8.70447 | 23821 ft | 426 kts | 317° |
| 2026-05-06 15:41 | 44.17675 | 8.67651 | 23273 ft | 421 kts | 317° |
| 2026-05-06 15:41 | 44.19814 | 8.64876 | 22729 ft | 417 kts | 317° |
| 2026-05-06 15:41 | 44.21900 | 8.62167 | 22190 ft | 413 kts | 317° |
| 2026-05-06 15:42 | 44.23992 | 8.59445 | 21655 ft | 409 kts | 317° |
| 2026-05-06 15:42 | 44.26064 | 8.56747 | 21119 ft | 405 kts | 317° |
| 2026-05-06 15:42 | 44.28115 | 8.54075 | 20591 ft | 401 kts | 317° |
| 2026-05-06 15:42 | 44.30153 | 8.51421 | 20055 ft | 397 kts | 317° |
| 2026-05-06 15:43 | 44.32162 | 8.48798 | 19533 ft | 393 kts | 317° |
| 2026-05-06 15:43 | 44.34152 | 8.46201 | 19007 ft | 390 kts | 317° |
| 2026-05-06 15:43 | 44.36098 | 8.43658 | 18498 ft | 386 kts | 317° |
| 2026-05-06 15:43 | 44.38054 | 8.41099 | 17975 ft | 383 kts | 317° |
| 2026-05-06 15:44 | 44.39997 | 8.38552 | 17462 ft | 380 kts | 317° |
| 2026-05-06 15:44 | 44.41936 | 8.36010 | 16940 ft | 377 kts | 317° |
| 2026-05-06 15:44 | 44.43827 | 8.33529 | 16442 ft | 375 kts | 317° |
| 2026-05-06 15:44 | 44.45709 | 8.31055 | 15943 ft | 371 kts | 317° |
| 2026-05-06 15:45 | 44.47561 | 8.28619 | 15449 ft | 369 kts | 317° |
| 2026-05-06 15:45 | 44.49427 | 8.26162 | 14952 ft | 366 kts | 317° |
| 2026-05-06 15:45 | 44.51281 | 8.23721 | 14455 ft | 364 kts | 317° |
| 2026-05-06 15:45 | 44.53120 | 8.21295 | 13966 ft | 361 kts | 317° |
| 2026-05-06 15:46 | 44.54943 | 8.18887 | 13481 ft | 358 kts | 317° |
| 2026-05-06 15:46 | 44.56750 | 8.16503 | 13000 ft | 355 kts | 317° |
| 2026-05-06 15:46 | 44.58544 | 8.14134 | 12518 ft | 353 kts | 317° |
| 2026-05-06 15:46 | 44.60303 | 8.11809 | 12050 ft | 350 kts | 317° |
| 2026-05-06 15:47 | 44.62062 | 8.09481 | 11578 ft | 348 kts | 317° |
| 2026-05-06 15:47 | 44.63828 | 8.07138 | 11127 ft | 345 kts | 317° |
| 2026-05-06 15:47 | 44.65532 | 8.04876 | 10924 ft | 327 kts | 317° |
| 2026-05-06 15:47 | 44.67130 | 8.02752 | 10903 ft | 304 kts | 317° |
| 2026-05-06 15:48 | 44.68594 | 8.00806 | 10886 ft | 281 kts | 317° |
| 2026-05-06 15:48 | 44.69978 | 7.98963 | 10607 ft | 271 kts | 317° |
| 2026-05-06 15:48 | 44.71344 | 7.97144 | 10158 ft | 268 kts | 317° |
| 2026-05-06 15:48 | 44.72665 | 7.95387 | 9867 ft | 265 kts | 317° |
| 2026-05-06 15:49 | 44.74008 | 7.93601 | 9587 ft | 266 kts | 317° |
| 2026-05-06 15:49 | 44.75238 | 7.91627 | 9491 ft | 270 kts | 298° |
| 2026-05-06 15:49 | 44.75747 | 7.89084 | 9393 ft | 268 kts | 269° |
| 2026-05-06 15:49 | 44.75384 | 7.86532 | 9234 ft | 268 kts | 249° |
| 2026-05-06 15:50 | 44.74684 | 7.84085 | 8857 ft | 269 kts | 246° |
| 2026-05-06 15:50 | 44.73957 | 7.81702 | 8483 ft | 268 kts | 246° |
| 2026-05-06 15:50 | 44.73228 | 7.79281 | 8133 ft | 265 kts | 246° |
| 2026-05-06 15:50 | 44.72626 | 7.76889 | 8018 ft | 259 kts | 261° |
| 2026-05-06 15:51 | 44.72764 | 7.74358 | 8011 ft | 264 kts | 290° |
| 2026-05-06 15:51 | 44.73737 | 7.72117 | 8013 ft | 263 kts | 313° |
| 2026-05-06 15:51 | 44.75119 | 7.70546 | 8007 ft | 251 kts | 337° |
| 2026-05-06 15:51 | 44.76739 | 7.69910 | 8005 ft | 232 kts | 349° |
| 2026-05-06 15:52 | 44.78266 | 7.69441 | 8007 ft | 217 kts | 349° |
| 2026-05-06 15:52 | 44.79743 | 7.68986 | 8026 ft | 221 kts | 349° |
| 2026-05-06 15:52 | 44.81278 | 7.68513 | 7990 ft | 223 kts | 349° |
| 2026-05-06 15:52 | 44.82772 | 7.68061 | 7965 ft | 212 kts | 349° |
| 2026-05-06 15:53 | 44.84214 | 7.67622 | 7455 ft | 214 kts | 349° |
| 2026-05-06 15:53 | 44.85665 | 7.67174 | 7063 ft | 209 kts | 349° |
| 2026-05-06 15:53 | 44.87036 | 7.66743 | 6694 ft | 201 kts | 349° |
| 2026-05-06 15:53 | 44.88393 | 7.66325 | 6137 ft | 199 kts | 349° |
| 2026-05-06 15:54 | 44.89748 | 7.65910 | 5599 ft | 198 kts | 349° |
| 2026-05-06 15:54 | 44.91119 | 7.65493 | 5038 ft | 199 kts | 350° |
| 2026-05-06 15:54 | 44.92462 | 7.65090 | 4572 ft | 195 kts | 349° |
| 2026-05-06 15:54 | 44.93782 | 7.64689 | 4140 ft | 190 kts | 349° |
| 2026-05-06 15:55 | 44.95091 | 7.64287 | 4043 ft | 196 kts | 349° |
| 2026-05-06 15:55 | 44.96392 | 7.63889 | 3999 ft | 190 kts | 351° |
| 2026-05-06 15:55 | 44.97688 | 7.63664 | 4011 ft | 180 kts | 358° |
| 2026-05-06 15:55 | 44.98908 | 7.63634 | 4020 ft | 175 kts | 2° |
| 2026-05-06 15:56 | 45.00120 | 7.63691 | 4009 ft | 172 kts | 4° |
| 2026-05-06 15:56 | 45.01323 | 7.63768 | 4017 ft | 173 kts | 4° |
| 2026-05-06 15:56 | 45.02126 | 7.63818 | 4003 ft | 174 kts | 4° |
| 2026-05-06 15:56 | 45.03731 | 7.63919 | 3907 ft | 174 kts | 5° |
| 2026-05-06 15:57 | 45.04931 | 7.63997 | 3679 ft | 172 kts | 4° |
| 2026-05-06 15:57 | 45.06124 | 7.64075 | 3450 ft | 168 kts | 5° |
| 2026-05-06 15:57 | 45.06883 | 7.64124 | 3299 ft | 162 kts | 5° |
| 2026-05-06 15:57 | 45.08017 | 7.64193 | 3089 ft | 161 kts | 4° |
| 2026-05-06 15:58 | 45.09124 | 7.64263 | 2862 ft | 159 kts | 5° |
| 2026-05-06 15:58 | 45.10244 | 7.64338 | 2663 ft | 161 kts | 5° |
| 2026-05-06 15:58 | 45.11377 | 7.64406 | 2454 ft | 159 kts | 5° |
| 2026-05-06 15:58 | 45.12457 | 7.64480 | 2227 ft | 152 kts | 5° |
| 2026-05-06 15:59 | 45.13470 | 7.64543 | 2013 ft | 143 kts | 4° |
| 2026-05-06 15:59 | 45.14478 | 7.64592 | 1767 ft | 148 kts | 4° |
| 2026-05-06 15:59 | 45.15515 | 7.64674 | 1568 ft | 150 kts | 4° |
| 2026-05-06 15:59 | 45.16554 | 7.64737 | 1389 ft | 148 kts | 5° |
| 2026-05-06 16:00 | 45.17570 | 7.64817 | 1251 ft | 145 kts | 2° |
| 2026-05-06 16:00 | 45.18590 | 7.64866 | 1031 ft | 147 kts | 4° |
| 2026-05-06 16:00 | 45.19569 | 7.64934 | 958 ft | 129 kts | 4° |
| 2026-05-06 16:00 | 45.20140 | 7.64964 | 980 ft | 28 kts | 346° |
| 2026-05-06 16:01 | 45.20193 | 7.64869 | 977 ft | 13 kts | 288° |
| 2026-05-06 16:01 | 45.20168 | 7.64735 | 979 ft | 15 kts | 229° |
| 2026-05-06 16:01 | 45.20053 | 7.64700 | 968 ft | 17 kts | 181° |
| 2026-05-06 16:01 | 45.19946 | 7.64694 | 964 ft | 17 kts | 183° |
| 2026-05-06 16:02 | 45.19812 | 7.64685 | 958 ft | 20 kts | 179° |
| 2026-05-06 16:02 | 45.19714 | 7.64700 | 959 ft | 11 kts | 176° |
| 2026-05-06 16:02 | 45.19631 | 7.64693 | 959 ft | 13 kts | 185° |
| 2026-05-06 16:02 | 45.19562 | 7.64683 | 958 ft | 9 kts | 183° |
| 2026-05-06 16:03 | 45.19494 | 7.64681 | 954 ft | 9 kts | 179° |
| 2026-05-06 16:03 | 45.19446 | 7.64682 | 956 ft | 6 kts | 180° |
| 2026-05-06 16:03 | 45.19396 | 7.64681 | 958 ft | 8 kts | 181° |
| 2026-05-06 16:03 | 45.19335 | 7.64678 | 958 ft | 10 kts | 182° |
| 2026-05-06 16:04 | 45.19286 | 7.64613 | 957 ft | 12 kts | 255° |
| 2026-05-06 16:04 | 45.19273 | 7.64525 | 953 ft | 1 kts | 257° |
| 2026-05-06 16:04 | 45.19272 | 7.64519 | 953 ft | 0 kts | 257° |